createdAt,value
2023-04-04T00:01:33.468Z,0.20
2023-04-04T00:04:03.081Z,0.20
2023-04-04T00:06:32.492Z,0.20
2023-04-04T00:09:01.891Z,0.20
2023-04-04T00:11:31.322Z,0.20
2023-04-04T00:14:00.585Z,0.20
2023-04-04T00:16:29.891Z,0.30
2023-04-04T00:18:59.162Z,0.30
2023-04-04T00:21:28.421Z,0.30
2023-04-04T00:23:58.050Z,0.40
2023-04-04T00:26:27.466Z,0.50
2023-04-04T00:28:56.792Z,0.50
2023-04-04T00:31:27.468Z,0.50
2023-04-04T00:33:57.270Z,0.50
2023-04-04T00:36:27.221Z,0.50
2023-04-04T00:38:57.767Z,0.50
2023-04-04T00:41:27.430Z,0.50
2023-04-04T00:43:56.863Z,0.50
2023-04-04T00:46:28.089Z,0.50
2023-04-04T00:48:58.040Z,0.50
2023-04-04T00:51:27.628Z,0.50
2023-04-04T00:53:57.019Z,0.40
2023-04-04T00:56:26.552Z,0.40
2023-04-04T00:58:57.174Z,0.30
2023-04-04T01:01:27.040Z,0.30
2023-04-04T01:03:56.502Z,0.30
2023-04-04T01:06:26.641Z,0.20
2023-04-04T01:08:56.611Z,0.20
2023-04-04T01:11:27.945Z,0.20
2023-04-04T01:13:57.684Z,0.10
2023-04-04T01:16:27.346Z,0.00
2023-04-04T01:18:57.035Z,0.00
2023-04-04T01:21:28.666Z,0.10
2023-04-04T01:24:04.836Z,0.10
2023-04-04T01:26:44.268Z,0.10
2023-04-04T01:29:13.612Z,0.20
2023-04-04T01:31:49.208Z,0.10
2023-04-04T01:34:28.719Z,0.10
2023-04-04T01:37:19.139Z,0.10
2023-04-04T01:39:58.853Z,0.10
2023-04-04T01:42:28.955Z,0.10
2023-04-04T01:44:59.738Z,0.10
2023-04-04T01:47:39.863Z,0.10
2023-04-04T01:50:11.223Z,0.10
2023-04-04T01:52:41.032Z,0.10
2023-04-04T01:55:10.929Z,0.10
2023-04-04T01:57:40.615Z,0.00
2023-04-04T02:00:11.066Z,-0.10
2023-04-04T02:02:46.731Z,-0.10
2023-04-04T02:05:16.337Z,-0.10
2023-04-04T02:07:50.746Z,-0.20
2023-04-04T02:10:32.083Z,-0.20
2023-04-04T02:13:01.548Z,-0.20
2023-04-04T02:15:31.025Z,-0.30
2023-04-04T02:18:02.025Z,-0.30
2023-04-04T02:20:31.745Z,-0.30
2023-04-04T02:23:01.178Z,-0.30
2023-04-04T02:25:30.457Z,-0.40
2023-04-04T02:27:59.704Z,-0.40
2023-04-04T02:30:29.461Z,-0.40
2023-04-04T02:32:59.860Z,-0.50
2023-04-04T02:35:29.332Z,-0.50
2023-04-04T02:37:58.673Z,-0.60
2023-04-04T02:40:40.020Z,-0.60
2023-04-04T02:43:09.718Z,-0.60
2023-04-04T02:45:40.267Z,-0.70
2023-04-04T02:48:29.893Z,-0.70
2023-04-04T02:51:03.314Z,-0.80
2023-04-04T02:53:33.675Z,-0.90
2023-04-04T02:56:14.525Z,-0.90
2023-04-04T02:58:43.734Z,-0.90
2023-04-04T03:01:13.110Z,-0.90
2023-04-04T03:03:42.464Z,-0.90
2023-04-04T03:06:12.238Z,-0.80
2023-04-04T03:08:41.541Z,-0.80
2023-04-04T03:11:11.115Z,-0.80
2023-04-04T03:13:40.886Z,-0.80
2023-04-04T03:16:11.295Z,-0.90
2023-04-04T03:18:51.045Z,-0.90
2023-04-04T03:21:23.106Z,-0.90
2023-04-04T03:23:52.303Z,-0.90
2023-04-04T03:26:21.651Z,-0.90
2023-04-04T03:28:51.063Z,-0.90
2023-04-04T03:31:23.106Z,-1.00
2023-04-04T03:33:52.964Z,-1.10
2023-04-04T03:36:24.288Z,-1.10
2023-04-04T03:38:53.573Z,-1.10
2023-04-04T03:41:23.025Z,-1.10
2023-04-04T03:44:17.368Z,-1.10
2023-04-04T03:46:46.840Z,-1.10
2023-04-04T03:49:16.506Z,-1.10
2023-04-04T03:51:45.777Z,-1.00
2023-04-04T03:54:15.033Z,-1.00
2023-04-04T03:56:44.562Z,-1.10
2023-04-04T03:59:14.202Z,-1.10
2023-04-04T04:01:43.575Z,-1.10
2023-04-04T04:04:12.963Z,-1.20
2023-04-04T04:06:44.048Z,-1.20
2023-04-04T04:09:13.347Z,-1.20
2023-04-04T04:11:42.633Z,-1.10
2023-04-04T04:14:12.077Z,-1.10
2023-04-04T04:16:41.692Z,-1.10
2023-04-04T04:19:13.078Z,-1.10
2023-04-04T04:21:44.221Z,-1.10
2023-04-04T04:24:13.576Z,-1.00
2023-04-04T04:26:42.939Z,-1.00
2023-04-04T04:29:12.647Z,-1.00
2023-04-04T04:31:41.942Z,-1.00
2023-04-04T04:34:11.543Z,-0.90
2023-04-04T04:36:42.812Z,-0.90
2023-04-04T04:39:24.305Z,-0.80
2023-04-04T04:42:08.136Z,-0.70
2023-04-04T04:44:40.844Z,-0.60
2023-04-04T04:47:10.118Z,-0.60
2023-04-04T04:49:39.493Z,-0.50
2023-04-04T04:52:12.219Z,-0.50
2023-04-04T04:54:45.468Z,-0.50
2023-04-04T04:57:14.905Z,-0.40
2023-04-04T04:59:46.724Z,-0.30
2023-04-04T05:02:17.345Z,-0.20
2023-04-04T05:04:49.084Z,-0.10
2023-04-04T05:07:19.477Z,0.10
2023-04-04T05:09:53.779Z,0.10
2023-04-04T05:12:28.288Z,0.20
2023-04-04T05:15:00.053Z,0.30
2023-04-04T05:17:29.893Z,0.40
2023-04-04T05:20:09.749Z,0.50
2023-04-04T05:22:44.498Z,0.60
2023-04-04T05:25:16.594Z,0.70
2023-04-04T05:27:49.187Z,0.80
2023-04-04T05:30:21.904Z,0.90
2023-04-04T05:33:01.051Z,1.00
2023-04-04T05:35:32.239Z,1.10
2023-04-04T05:38:13.346Z,1.20
2023-04-04T05:40:42.616Z,1.30
2023-04-04T05:43:15.338Z,1.40
2023-04-04T05:46:04.941Z,1.50
2023-04-04T05:48:40.429Z,1.70
2023-04-04T05:51:11.213Z,1.90
2023-04-04T05:54:09.808Z,2.00
2023-04-04T05:56:40.503Z,2.10
2023-04-04T05:59:18.148Z,2.10
2023-04-04T06:01:56.735Z,2.20
2023-04-04T06:04:26.269Z,2.20
2023-04-04T06:06:57.251Z,2.30
2023-04-04T06:09:27.559Z,2.40
2023-04-04T06:11:57.163Z,2.40
2023-04-04T06:14:26.488Z,2.50
2023-04-04T06:17:06.828Z,2.70
2023-04-04T06:19:37.402Z,2.80
2023-04-04T06:22:06.583Z,2.90
2023-04-04T06:24:39.466Z,3.10
2023-04-04T06:27:13.228Z,3.20
2023-04-04T06:29:42.924Z,3.30
2023-04-04T06:32:12.952Z,3.50
2023-04-04T06:34:45.066Z,3.60
2023-04-04T06:37:15.623Z,3.70
2023-04-04T06:39:53.991Z,3.80
2023-04-04T06:42:27.228Z,3.90
2023-04-04T06:45:01.105Z,3.90
2023-04-04T06:47:43.223Z,4.00
2023-04-04T06:50:14.102Z,4.10
2023-04-04T06:52:45.714Z,4.10
2023-04-04T06:55:15.757Z,3.90
2023-04-04T06:57:45.355Z,3.90
2023-04-04T07:00:15.778Z,3.80
2023-04-04T07:02:45.700Z,3.80
2023-04-04T07:05:18.120Z,3.80
2023-04-04T07:07:48.027Z,3.90
2023-04-04T07:10:17.385Z,4.10
2023-04-04T07:12:46.792Z,4.20
2023-04-04T07:15:16.293Z,4.40
2023-04-04T07:17:45.587Z,4.50
2023-04-04T07:20:14.950Z,4.70
2023-04-04T07:22:44.564Z,4.80
2023-04-04T07:25:14.149Z,5.00
2023-04-04T07:27:43.346Z,5.30
2023-04-04T07:30:13.176Z,5.50
2023-04-04T07:32:42.546Z,5.50
2023-04-04T07:35:11.888Z,5.60
2023-04-04T07:37:41.138Z,5.70
2023-04-04T07:40:10.875Z,5.70
2023-04-04T07:42:45.584Z,5.80
2023-04-04T07:45:14.898Z,5.90
2023-04-04T07:47:45.385Z,6.00
2023-04-04T07:50:16.385Z,5.90
2023-04-04T07:52:51.532Z,6.00
2023-04-04T07:55:21.050Z,6.10
2023-04-04T07:57:52.327Z,6.00
2023-04-04T08:00:22.794Z,6.00
2023-04-04T08:03:05.654Z,6.00
2023-04-04T08:05:37.576Z,6.00
2023-04-04T08:08:07.226Z,6.10
2023-04-04T08:10:36.512Z,6.00
2023-04-04T08:13:38.228Z,6.00
2023-04-04T08:16:13.891Z,6.00
2023-04-04T08:20:02.171Z,6.00
2023-04-04T08:22:33.888Z,5.90
2023-04-04T08:25:07.287Z,6.00
2023-04-04T08:27:48.015Z,6.00
2023-04-04T08:30:17.699Z,6.10
2023-04-04T08:32:48.831Z,6.10
2023-04-04T08:35:23.659Z,6.10
2023-04-04T08:37:53.224Z,6.10
2023-04-04T08:40:25.517Z,6.10
2023-04-04T08:43:00.992Z,6.20
2023-04-04T08:45:34.386Z,6.20
2023-04-04T08:48:09.337Z,6.30
2023-04-04T08:50:44.063Z,6.30
2023-04-04T08:53:17.474Z,6.30
2023-04-04T08:55:51.486Z,6.30
2023-04-04T08:58:25.145Z,6.40
2023-04-04T09:00:56.227Z,6.50
2023-04-04T09:03:28.689Z,6.60
2023-04-04T09:06:02.313Z,6.70
2023-04-04T09:08:33.411Z,6.60
2023-04-04T09:11:06.401Z,6.70
2023-04-04T09:13:39.136Z,6.60
2023-04-04T09:16:13.545Z,6.70
2023-04-04T09:18:54.768Z,6.70
2023-04-04T09:21:24.489Z,6.60
2023-04-04T09:24:01.825Z,6.50
2023-04-04T09:26:52.140Z,6.40
2023-04-04T09:29:22.013Z,6.30
2023-04-04T09:31:51.536Z,6.20
2023-04-04T09:34:21.237Z,6.30
2023-04-04T09:36:50.452Z,6.50
2023-04-04T09:39:20.910Z,6.60
2023-04-04T09:41:50.380Z,7.00
2023-04-04T09:44:19.924Z,7.30
2023-04-04T09:46:52.270Z,7.70
2023-04-04T09:49:22.893Z,8.10
2023-04-04T09:51:55.187Z,8.30
2023-04-04T09:54:29.536Z,8.30
2023-04-04T09:57:01.515Z,8.50
2023-04-04T09:59:30.976Z,8.40
2023-04-04T10:02:02.323Z,8.60
2023-04-04T10:04:32.396Z,9.00
2023-04-04T10:07:01.856Z,9.10
2023-04-04T10:09:31.448Z,9.00
2023-04-04T10:12:11.373Z,9.00
2023-04-04T10:14:41.180Z,9.00
2023-04-04T10:17:10.598Z,9.10
2023-04-04T10:19:40.941Z,9.30
2023-04-04T10:22:11.514Z,9.30
2023-04-04T10:24:40.872Z,9.30
2023-04-04T10:27:11.562Z,9.10
2023-04-04T10:29:41.004Z,9.00
2023-04-04T10:32:17.661Z,9.10
2023-04-04T10:34:58.500Z,9.10
2023-04-04T10:37:31.329Z,9.10
2023-04-04T10:40:15.257Z,9.00
2023-04-04T10:42:47.455Z,9.00
2023-04-04T10:45:21.593Z,8.90
2023-04-04T10:47:52.129Z,8.80
2023-04-04T10:50:21.581Z,8.80
2023-04-04T10:52:51.575Z,8.70
2023-04-04T10:55:21.826Z,8.90
2023-04-04T10:57:53.312Z,8.90
2023-04-04T11:00:24.366Z,8.70
2023-04-04T11:02:55.776Z,8.70
2023-04-04T11:05:42.575Z,8.50
2023-04-04T11:08:17.077Z,8.40
2023-04-04T11:10:49.098Z,8.30
2023-04-04T11:13:22.861Z,8.60
2023-04-04T11:16:05.206Z,8.70
2023-04-04T11:18:40.363Z,8.80
2023-04-04T11:21:20.262Z,8.90
2023-04-04T11:23:49.776Z,9.00
2023-04-04T11:26:28.079Z,9.00
2023-04-04T11:29:02.307Z,9.00
2023-04-04T11:31:44.037Z,9.00
2023-04-04T11:34:14.893Z,8.90
2023-04-04T11:36:45.461Z,9.00
2023-04-04T11:39:22.898Z,9.00
2023-04-04T11:41:55.653Z,8.90
2023-04-04T11:44:30.727Z,8.70
2023-04-04T11:47:11.360Z,8.60
2023-04-04T11:49:42.976Z,8.50
2023-04-04T11:52:14.787Z,8.40
2023-04-04T11:54:46.821Z,8.40
2023-04-04T11:57:18.070Z,8.40
2023-04-04T11:59:51.945Z,8.30
2023-04-04T12:02:32.993Z,8.50
2023-04-04T12:05:05.704Z,8.60
2023-04-04T12:07:35.596Z,8.50
2023-04-04T12:10:06.132Z,8.70
2023-04-04T12:12:39.621Z,8.70
2023-04-04T12:15:17.534Z,8.80
2023-04-04T12:17:50.138Z,8.90
2023-04-04T12:20:23.669Z,9.20
2023-04-04T12:22:53.365Z,9.30
2023-04-04T12:25:28.496Z,9.50
2023-04-04T12:27:58.013Z,9.60
2023-04-04T12:30:27.402Z,9.70
2023-04-04T12:32:57.311Z,9.80
2023-04-04T12:35:26.618Z,9.80
2023-04-04T12:38:04.660Z,9.80
2023-04-04T12:40:37.472Z,9.90
2023-04-04T12:43:08.778Z,9.80
2023-04-04T12:45:39.694Z,9.80
2023-04-04T12:48:11.570Z,9.80
2023-04-04T12:50:54.423Z,9.90
2023-04-04T12:53:30.029Z,9.70
2023-04-04T12:56:05.121Z,9.70
2023-04-04T12:58:37.109Z,9.80
2023-04-04T13:01:09.576Z,9.90
2023-04-04T13:03:40.125Z,10.10
2023-04-04T13:06:21.488Z,10.10
2023-04-04T13:08:56.178Z,10.10
2023-04-04T13:11:28.603Z,10.20
2023-04-04T13:14:03.281Z,10.60
2023-04-04T13:16:37.876Z,12.80
2023-04-04T13:19:10.817Z,14.20
2023-04-04T13:21:47.135Z,16.40
2023-04-04T13:24:18.777Z,17.70
2023-04-04T13:26:52.161Z,19.20
2023-04-04T13:29:25.164Z,20.50
2023-04-04T13:31:56.608Z,21.90
2023-04-04T13:34:27.469Z,22.50
2023-04-04T13:37:08.090Z,23.20
2023-04-04T13:39:37.575Z,24.30
2023-04-04T13:42:07.940Z,26.10
2023-04-04T13:44:37.214Z,26.80
2023-04-04T13:47:06.421Z,27.30
2023-04-04T13:49:35.954Z,28.20
2023-04-04T13:52:05.313Z,28.80
2023-04-04T13:54:34.460Z,28.90
2023-04-04T13:57:03.742Z,28.80
2023-04-04T13:59:33.078Z,24.70
2023-04-04T14:02:03.549Z,20.20
2023-04-04T14:04:32.966Z,16.90
2023-04-04T14:07:02.485Z,15.00
2023-04-04T14:09:31.879Z,13.60
2023-04-04T14:12:01.600Z,12.60
2023-04-04T14:14:31.307Z,11.50
2023-04-04T14:17:01.201Z,11.30
2023-04-04T14:19:30.410Z,10.80
2023-04-04T14:21:59.608Z,10.20
2023-04-04T14:24:28.904Z,9.90
2023-04-04T14:26:58.274Z,9.60
2023-04-04T14:29:28.276Z,9.40
2023-04-04T14:31:57.730Z,9.20
2023-04-04T14:34:28.036Z,9.10
2023-04-04T14:36:57.306Z,9.10
2023-04-04T14:39:26.724Z,8.80
2023-04-04T14:41:56.672Z,8.60
2023-04-04T14:44:26.081Z,8.60
2023-04-04T14:46:55.351Z,8.50
2023-04-04T14:49:24.660Z,8.30
2023-04-04T14:51:54.004Z,8.10
2023-04-04T14:54:23.234Z,8.00
2023-04-04T14:56:52.886Z,7.90
2023-04-04T14:59:22.234Z,7.80
2023-04-04T15:01:52.049Z,7.80
2023-04-04T15:04:21.379Z,7.70
2023-04-04T15:06:50.933Z,7.60
2023-04-04T15:09:20.456Z,7.60
2023-04-04T15:11:49.842Z,7.50
2023-04-04T15:14:19.068Z,7.40
2023-04-04T15:16:48.377Z,7.20
2023-04-04T15:19:17.795Z,7.10
2023-04-04T15:21:48.655Z,7.10
2023-04-04T15:24:17.914Z,7.00
2023-04-04T15:26:47.071Z,6.90
2023-04-04T15:29:16.245Z,6.70
2023-04-04T15:31:45.815Z,6.70
2023-04-04T15:34:15.207Z,6.60
2023-04-04T15:36:44.612Z,6.60
2023-04-04T15:39:14.065Z,6.60
2023-04-04T15:41:43.519Z,6.60
2023-04-04T15:44:12.784Z,6.60
2023-04-04T15:46:42.022Z,6.50
2023-04-04T15:49:11.285Z,6.50
2023-04-04T15:51:43.076Z,6.50
2023-04-04T15:54:12.777Z,6.40
2023-04-04T15:56:42.105Z,6.40
2023-04-04T15:59:11.467Z,6.30
2023-04-04T16:01:42.007Z,6.20
2023-04-04T16:04:11.307Z,6.20
2023-04-04T16:06:40.656Z,6.10
2023-04-04T16:09:09.865Z,6.10
2023-04-04T16:11:40.448Z,6.00
2023-04-04T16:14:10.981Z,5.90
2023-04-04T16:16:41.413Z,5.90
2023-04-04T16:19:14.209Z,5.80
2023-04-04T16:21:47.074Z,5.70
2023-04-04T16:24:16.254Z,5.60
2023-04-04T16:26:47.712Z,5.50
2023-04-04T16:29:17.636Z,5.40
2023-04-04T16:31:46.981Z,5.40
2023-04-04T16:34:16.472Z,5.30
2023-04-04T16:36:45.837Z,5.20
2023-04-04T16:39:15.380Z,5.10
2023-04-04T16:41:44.627Z,5.00
2023-04-04T16:44:15.432Z,4.90
2023-04-04T16:46:45.101Z,4.70
2023-04-04T16:49:14.536Z,4.70
2023-04-04T16:51:43.768Z,4.50
2023-04-04T16:54:13.820Z,4.50
2023-04-04T16:56:43.154Z,4.40
2023-04-04T16:59:12.450Z,4.30
2023-04-04T17:01:41.730Z,4.20
2023-04-04T17:04:40.346Z,4.10
2023-04-04T17:07:11.684Z,4.00
2023-04-04T17:09:41.217Z,3.90
2023-04-04T17:12:10.790Z,3.80
2023-04-04T17:14:40.183Z,3.70
2023-04-04T17:17:10.522Z,3.60
2023-04-04T17:19:39.872Z,3.50
2023-04-04T17:22:09.069Z,3.40
2023-04-04T17:24:38.325Z,3.40
2023-04-04T17:27:07.889Z,3.30
2023-04-04T17:29:37.416Z,3.30
2023-04-04T17:32:07.373Z,3.30
2023-04-04T17:34:36.596Z,3.20
2023-04-04T17:37:09.136Z,3.10
2023-04-04T17:39:38.493Z,3.10
2023-04-04T17:42:08.132Z,3.00
2023-04-04T17:44:37.738Z,3.00
2023-04-04T17:47:08.529Z,2.90
2023-04-04T17:49:38.321Z,2.80
2023-04-04T17:52:07.659Z,2.70
2023-04-04T17:54:36.919Z,2.70
2023-04-04T17:57:07.399Z,2.70
2023-04-04T17:59:38.092Z,2.70
2023-04-04T18:02:07.428Z,2.70
2023-04-04T18:04:39.816Z,2.80
2023-04-04T18:07:09.361Z,2.80
2023-04-04T18:09:38.818Z,2.80
2023-04-04T18:12:11.993Z,2.80
2023-04-04T18:14:42.178Z,2.70
2023-04-04T18:17:14.344Z,2.60
2023-04-04T18:19:47.355Z,2.50
2023-04-04T18:22:20.480Z,2.50
2023-04-04T18:24:52.245Z,2.40
2023-04-04T18:27:21.509Z,2.40
2023-04-04T18:29:50.696Z,2.40
2023-04-04T18:32:21.686Z,2.40
2023-04-04T18:34:51.197Z,2.30
2023-04-04T18:37:20.504Z,2.40
2023-04-04T18:39:49.761Z,2.30
2023-04-04T18:42:19.050Z,2.30
2023-04-04T18:44:48.379Z,2.30
2023-04-04T18:47:17.755Z,2.30
2023-04-04T18:49:47.877Z,2.30
2023-04-04T18:52:17.067Z,2.20
2023-04-04T18:54:47.052Z,2.20
2023-04-04T18:57:17.027Z,2.20
2023-04-04T18:59:46.972Z,2.10
2023-04-04T19:02:16.435Z,2.10
2023-04-04T19:04:46.882Z,2.10
2023-04-04T19:07:22.143Z,2.10
2023-04-04T19:09:51.856Z,2.00
2023-04-04T19:12:21.320Z,2.00
2023-04-04T19:14:50.865Z,2.00
2023-04-04T19:17:20.131Z,2.00
2023-04-04T19:19:49.400Z,1.90
2023-04-04T19:22:18.623Z,1.90
2023-04-04T19:24:47.965Z,1.80
2023-04-04T19:27:17.188Z,1.80
2023-04-04T19:29:46.566Z,1.70
2023-04-04T19:32:19.696Z,1.70
2023-04-04T19:34:49.850Z,1.70
2023-04-04T19:37:19.288Z,1.70
2023-04-04T19:39:48.968Z,1.70
2023-04-04T19:42:26.254Z,1.70
2023-04-04T19:44:55.818Z,1.70
2023-04-04T19:47:25.081Z,1.70
2023-04-04T19:49:54.452Z,1.60
2023-04-04T19:52:24.524Z,1.60
2023-04-04T19:54:53.973Z,1.60
2023-04-04T19:57:23.478Z,1.60
2023-04-04T19:59:58.691Z,1.70
2023-04-04T20:02:30.156Z,1.70
2023-04-04T20:04:59.704Z,1.70
2023-04-04T20:07:29.255Z,1.60
2023-04-04T20:09:58.599Z,1.60
2023-04-04T20:12:33.891Z,1.70
2023-04-04T20:15:08.839Z,1.60
2023-04-04T20:17:38.085Z,1.60
2023-04-04T20:20:11.257Z,1.60
2023-04-04T20:22:40.794Z,1.60
2023-04-04T20:25:31.301Z,1.50
2023-04-04T20:28:00.664Z,1.50
2023-04-04T20:30:33.731Z,1.50
2023-04-04T20:33:08.082Z,1.50
2023-04-04T20:35:37.494Z,1.40
2023-04-04T20:38:07.477Z,1.30
2023-04-04T20:40:39.449Z,1.30
2023-04-04T20:43:09.082Z,1.20
2023-04-04T20:45:45.093Z,1.10
2023-04-04T20:48:33.022Z,1.10
2023-04-04T20:51:02.558Z,1.10
2023-04-04T20:53:32.938Z,1.00
2023-04-04T20:56:02.614Z,1.00
2023-04-04T20:58:32.239Z,1.00
2023-04-04T21:01:01.922Z,0.90
2023-04-04T21:03:34.318Z,0.80
2023-04-04T21:06:09.746Z,0.80
2023-04-04T21:08:49.526Z,0.90
2023-04-04T21:11:28.965Z,0.90
2023-04-04T21:13:58.339Z,0.90
2023-04-04T21:16:28.010Z,0.80
2023-04-04T21:18:59.694Z,0.70
2023-04-04T21:21:29.390Z,0.70
2023-04-04T21:24:00.261Z,0.60
2023-04-04T21:26:32.195Z,0.60
2023-04-04T21:29:27.320Z,0.60
2023-04-04T21:31:57.503Z,0.60
2023-04-04T21:34:27.961Z,0.50
2023-04-04T21:37:01.552Z,0.50
2023-04-04T21:39:31.232Z,0.60
2023-04-04T21:42:07.867Z,0.50
2023-04-04T21:44:38.753Z,0.50
2023-04-04T21:47:08.015Z,0.50
2023-04-04T21:49:41.497Z,0.50
2023-04-04T21:52:15.705Z,0.40
2023-04-04T21:54:46.221Z,0.40
2023-04-04T21:57:16.930Z,0.40
2023-04-04T21:59:47.272Z,0.40
2023-04-04T22:02:17.728Z,0.40
2023-04-04T22:04:46.952Z,0.30
2023-04-04T22:07:18.514Z,0.30
2023-04-04T22:09:53.022Z,0.30
2023-04-04T22:12:23.324Z,0.30
2023-04-04T22:14:53.626Z,0.30
2023-04-04T22:17:23.407Z,0.30
2023-04-04T22:19:59.701Z,0.30
2023-04-04T22:22:30.199Z,0.30
2023-04-04T22:25:07.088Z,0.20
2023-04-04T22:27:39.431Z,0.30
2023-04-04T22:30:15.644Z,0.20
2023-04-04T22:32:49.072Z,0.20
2023-04-04T22:35:18.414Z,0.20
2023-04-04T22:37:52.254Z,0.10
2023-04-04T22:40:27.956Z,0.10
2023-04-04T22:42:57.864Z,0.10
2023-04-04T22:45:29.645Z,0.10
2023-04-04T22:48:02.412Z,0.10
2023-04-04T22:50:31.977Z,0.10
2023-04-04T22:53:02.114Z,0.00
2023-04-04T22:55:31.646Z,0.00
2023-04-04T22:58:02.277Z,0.00
2023-04-04T23:00:34.753Z,0.00
2023-04-04T23:03:13.112Z,0.00
2023-04-04T23:05:43.422Z,-0.10
2023-04-04T23:08:13.163Z,-0.10
2023-04-04T23:10:45.124Z,-0.20
2023-04-04T23:13:14.452Z,-0.20
2023-04-04T23:15:45.497Z,-0.30
2023-04-04T23:18:15.255Z,-0.30
2023-04-04T23:20:46.604Z,-0.30
2023-04-04T23:23:16.681Z,-0.30
2023-04-04T23:25:45.983Z,-0.30
2023-04-04T23:28:18.569Z,-0.30
2023-04-04T23:30:47.772Z,-0.20
2023-04-04T23:33:17.300Z,-0.20
2023-04-04T23:35:46.640Z,-0.20
2023-04-04T23:38:15.926Z,-0.20
2023-04-04T23:40:46.421Z,-0.20
2023-04-04T23:43:18.277Z,-0.20
2023-04-04T23:45:47.950Z,-0.10
2023-04-04T23:48:18.571Z,-0.10
2023-04-04T23:50:50.196Z,-0.10
2023-04-04T23:53:19.544Z,-0.10
2023-04-04T23:55:50.085Z,-0.10
2023-04-04T23:58:19.498Z,-0.10
